sensor_id;sensor_type;location;lat;lon;timestamp;temperature;humidity
27922;DHT22;15261;50.356;10.340;2023-05-10T00:01:01;15.90;93.70
27922;DHT22;15261;50.356;10.340;2023-05-10T00:03:27;15.90;93.90
27922;DHT22;15261;50.356;10.340;2023-05-10T00:05:53;15.80;94.20
27922;DHT22;15261;50.356;10.340;2023-05-10T00:08:19;15.70;94.70
27922;DHT22;15261;50.356;10.340;2023-05-10T00:10:45;15.80;95.10
27922;DHT22;15261;50.356;10.340;2023-05-10T00:13:10;15.80;95.10
27922;DHT22;15261;50.356;10.340;2023-05-10T00:15:36;15.70;95.20
27922;DHT22;15261;50.356;10.340;2023-05-10T00:18:01;15.70;95.60
27922;DHT22;15261;50.356;10.340;2023-05-10T00:20:27;15.70;95.60
27922;DHT22;15261;50.356;10.340;2023-05-10T00:22:53;15.50;95.80
27922;DHT22;15261;50.356;10.340;2023-05-10T00:25:19;15.60;96.10
27922;DHT22;15261;50.356;10.340;2023-05-10T00:27:47;15.50;96.70
27922;DHT22;15261;50.356;10.340;2023-05-10T00:30:12;15.40;96.50
27922;DHT22;15261;50.356;10.340;2023-05-10T00:32:38;15.10;96.80
27922;DHT22;15261;50.356;10.340;2023-05-10T00:35:04;15.10;97.70
27922;DHT22;15261;50.356;10.340;2023-05-10T00:37:30;14.90;96.80
27922;DHT22;15261;50.356;10.340;2023-05-10T00:39:55;14.80;97.50
27922;DHT22;15261;50.356;10.340;2023-05-10T00:42:21;14.80;98.10
27922;DHT22;15261;50.356;10.340;2023-05-10T00:44:47;14.80;97.60
27922;DHT22;15261;50.356;10.340;2023-05-10T00:47:15;14.80;98.00
27922;DHT22;15261;50.356;10.340;2023-05-10T00:49:41;14.80;98.10
27922;DHT22;15261;50.356;10.340;2023-05-10T00:52:08;14.70;97.60
27922;DHT22;15261;50.356;10.340;2023-05-10T00:54:33;14.70;98.50
27922;DHT22;15261;50.356;10.340;2023-05-10T00:56:59;14.60;99.10
27922;DHT22;15261;50.356;10.340;2023-05-10T00:59:25;14.50;99.90
27922;DHT22;15261;50.356;10.340;2023-05-10T01:17:44;14.30;99.90
27922;DHT22;15261;50.356;10.340;2023-05-10T01:20:20;14.20;99.90
27922;DHT22;15261;50.356;10.340;2023-05-10T01:23:17;14.10;99.90
27922;DHT22;15261;50.356;10.340;2023-05-10T01:28:45;14.10;99.90
27922;DHT22;15261;50.356;10.340;2023-05-10T01:34:29;13.90;99.90
27922;DHT22;15261;50.356;10.340;2023-05-10T01:37:07;13.90;99.90
27922;DHT22;15261;50.356;10.340;2023-05-10T01:43:01;13.90;99.90
27922;DHT22;15261;50.356;10.340;2023-05-10T01:45:33;14.00;99.90
27922;DHT22;15261;50.356;10.340;2023-05-10T01:48:08;14.10;99.90
27922;DHT22;15261;50.356;10.340;2023-05-10T01:50:36;14.00;99.90
27922;DHT22;15261;50.356;10.340;2023-05-10T01:53:06;14.00;99.90
27922;DHT22;15261;50.356;10.340;2023-05-10T01:55:35;14.10;99.90
27922;DHT22;15261;50.356;10.340;2023-05-10T01:58:11;14.10;99.90
27922;DHT22;15261;50.356;10.340;2023-05-10T02:00:42;14.20;99.90
27922;DHT22;15261;50.356;10.340;2023-05-10T02:03:12;13.90;99.90
27922;DHT22;15261;50.356;10.340;2023-05-10T02:05:40;13.90;99.90
27922;DHT22;15261;50.356;10.340;2023-05-10T02:08:07;13.80;99.90
27922;DHT22;15261;50.356;10.340;2023-05-10T02:10:36;13.90;99.90
27922;DHT22;15261;50.356;10.340;2023-05-10T02:13:03;13.90;99.90
27922;DHT22;15261;50.356;10.340;2023-05-10T02:15:29;13.90;99.90
27922;DHT22;15261;50.356;10.340;2023-05-10T02:18:00;13.90;99.90
27922;DHT22;15261;50.356;10.340;2023-05-10T02:20:27;14.00;99.90
27922;DHT22;15261;50.356;10.340;2023-05-10T02:22:55;14.00;99.90
27922;DHT22;15261;50.356;10.340;2023-05-10T02:25:23;14.00;99.90
27922;DHT22;15261;50.356;10.340;2023-05-10T02:27:50;14.00;99.90
27922;DHT22;15261;50.356;10.340;2023-05-10T02:30:20;14.10;99.90
27922;DHT22;15261;50.356;10.340;2023-05-10T02:32:50;14.10;99.90
27922;DHT22;15261;50.356;10.340;2023-05-10T02:35:17;14.00;99.90
27922;DHT22;15261;50.356;10.340;2023-05-10T02:37:45;14.00;99.90
27922;DHT22;15261;50.356;10.340;2023-05-10T02:40:12;14.10;99.90
27922;DHT22;15261;50.356;10.340;2023-05-10T02:42:41;14.10;99.90
27922;DHT22;15261;50.356;10.340;2023-05-10T02:45:11;14.10;99.90
27922;DHT22;15261;50.356;10.340;2023-05-10T02:47:37;14.20;99.90
27922;DHT22;15261;50.356;10.340;2023-05-10T02:50:03;14.20;99.90
27922;DHT22;15261;50.356;10.340;2023-05-10T02:52:33;14.10;99.90
27922;DHT22;15261;50.356;10.340;2023-05-10T02:55:03;14.20;99.90
27922;DHT22;15261;50.356;10.340;2023-05-10T02:57:33;14.10;99.90
27922;DHT22;15261;50.356;10.340;2023-05-10T03:00:01;14.20;99.90
27922;DHT22;15261;50.356;10.340;2023-05-10T03:02:27;14.20;99.90
27922;DHT22;15261;50.356;10.340;2023-05-10T03:04:53;14.20;99.90
27922;DHT22;15261;50.356;10.340;2023-05-10T03:07:19;14.20;99.90
27922;DHT22;15261;50.356;10.340;2023-05-10T03:09:47;14.20;99.90
27922;DHT22;15261;50.356;10.340;2023-05-10T03:15:04;14.20;99.90
27922;DHT22;15261;50.356;10.340;2023-05-10T03:18:37;14.10;99.90
27922;DHT22;15261;50.356;10.340;2023-05-10T03:20:43;14.10;99.90
27922;DHT22;15261;50.356;10.340;2023-05-10T03:25:43;14.00;99.90
27922;DHT22;15261;50.356;10.340;2023-05-10T03:28:30;14.00;99.90
27922;DHT22;15261;50.356;10.340;2023-05-10T03:30:57;14.00;99.90
27922;DHT22;15261;50.356;10.340;2023-05-10T03:33:23;14.00;99.90
27922;DHT22;15261;50.356;10.340;2023-05-10T03:35:49;13.90;99.90
27922;DHT22;15261;50.356;10.340;2023-05-10T03:38:14;14.00;99.90
27922;DHT22;15261;50.356;10.340;2023-05-10T03:40:40;14.00;99.90
27922;DHT22;15261;50.356;10.340;2023-05-10T03:43:06;14.00;99.90
27922;DHT22;15261;50.356;10.340;2023-05-10T03:45:34;14.00;99.90
27922;DHT22;15261;50.356;10.340;2023-05-10T03:48:00;14.00;99.90
27922;DHT22;15261;50.356;10.340;2023-05-10T03:50:26;14.10;99.90
27922;DHT22;15261;50.356;10.340;2023-05-10T03:52:52;14.10;99.90
27922;DHT22;15261;50.356;10.340;2023-05-10T03:55:20;14.10;99.90
27922;DHT22;15261;50.356;10.340;2023-05-10T03:57:47;14.10;99.90
27922;DHT22;15261;50.356;10.340;2023-05-10T04:00:15;14.10;99.90
27922;DHT22;15261;50.356;10.340;2023-05-10T04:02:40;14.10;99.90
27922;DHT22;15261;50.356;10.340;2023-05-10T04:05:06;14.10;99.90
27922;DHT22;15261;50.356;10.340;2023-05-10T04:07:32;14.00;99.90
27922;DHT22;15261;50.356;10.340;2023-05-10T04:09:58;14.10;99.90
27922;DHT22;15261;50.356;10.340;2023-05-10T04:12:24;14.10;99.90
27922;DHT22;15261;50.356;10.340;2023-05-10T04:14:50;14.20;99.90
27922;DHT22;15261;50.356;10.340;2023-05-10T04:17:16;14.10;99.90
27922;DHT22;15261;50.356;10.340;2023-05-10T04:19:42;14.10;99.90
27922;DHT22;15261;50.356;10.340;2023-05-10T04:22:07;14.20;99.90
27922;DHT22;15261;50.356;10.340;2023-05-10T04:24:33;14.20;99.90
27922;DHT22;15261;50.356;10.340;2023-05-10T04:26:59;14.20;99.90
27922;DHT22;15261;50.356;10.340;2023-05-10T04:29:24;14.20;99.90
27922;DHT22;15261;50.356;10.340;2023-05-10T04:31:53;14.10;99.90
27922;DHT22;15261;50.356;10.340;2023-05-10T04:34:20;14.10;99.90
27922;DHT22;15261;50.356;10.340;2023-05-10T04:36:46;14.10;99.90
27922;DHT22;15261;50.356;10.340;2023-05-10T04:39:12;14.10;99.90
27922;DHT22;15261;50.356;10.340;2023-05-10T04:41:39;14.10;99.90
27922;DHT22;15261;50.356;10.340;2023-05-10T04:44:04;14.10;99.90
27922;DHT22;15261;50.356;10.340;2023-05-10T04:46:30;14.20;99.90
27922;DHT22;15261;50.356;10.340;2023-05-10T04:48:55;14.10;99.90
27922;DHT22;15261;50.356;10.340;2023-05-10T04:51:21;14.10;99.90
27922;DHT22;15261;50.356;10.340;2023-05-10T04:53:50;14.20;99.90
27922;DHT22;15261;50.356;10.340;2023-05-10T04:56:16;14.20;99.90
27922;DHT22;15261;50.356;10.340;2023-05-10T04:58:42;14.10;99.90
27922;DHT22;15261;50.356;10.340;2023-05-10T05:01:08;14.30;99.90
27922;DHT22;15261;50.356;10.340;2023-05-10T05:03:34;14.30;99.90
27922;DHT22;15261;50.356;10.340;2023-05-10T05:05:59;14.30;99.90
27922;DHT22;15261;50.356;10.340;2023-05-10T05:08:29;14.30;99.90
27922;DHT22;15261;50.356;10.340;2023-05-10T05:10:54;14.30;99.90
27922;DHT22;15261;50.356;10.340;2023-05-10T05:13:22;14.40;99.90
27922;DHT22;15261;50.356;10.340;2023-05-10T05:15:48;14.50;99.90
27922;DHT22;15261;50.356;10.340;2023-05-10T05:18:13;14.50;99.90
27922;DHT22;15261;50.356;10.340;2023-05-10T05:20:39;14.50;99.90
27922;DHT22;15261;50.356;10.340;2023-05-10T05:23:08;14.40;99.90
27922;DHT22;15261;50.356;10.340;2023-05-10T05:25:33;14.40;99.90
27922;DHT22;15261;50.356;10.340;2023-05-10T05:27:59;14.50;99.90
27922;DHT22;15261;50.356;10.340;2023-05-10T05:30:25;14.50;99.90
27922;DHT22;15261;50.356;10.340;2023-05-10T05:32:50;14.40;99.90
27922;DHT22;15261;50.356;10.340;2023-05-10T05:35:16;14.50;99.90
27922;DHT22;15261;50.356;10.340;2023-05-10T05:37:42;14.50;99.90
27922;DHT22;15261;50.356;10.340;2023-05-10T05:40:08;14.50;99.90
27922;DHT22;15261;50.356;10.340;2023-05-10T05:42:33;14.60;99.90
27922;DHT22;15261;50.356;10.340;2023-05-10T05:44:59;14.60;99.90
27922;DHT22;15261;50.356;10.340;2023-05-10T05:47:25;14.60;99.90
27922;DHT22;15261;50.356;10.340;2023-05-10T05:49:51;14.60;99.90
27922;DHT22;15261;50.356;10.340;2023-05-10T05:52:16;14.60;99.90
27922;DHT22;15261;50.356;10.340;2023-05-10T05:54:44;14.50;99.90
27922;DHT22;15261;50.356;10.340;2023-05-10T05:57:09;14.50;99.90
27922;DHT22;15261;50.356;10.340;2023-05-10T05:59:38;14.50;99.90
27922;DHT22;15261;50.356;10.340;2023-05-10T06:02:09;14.60;99.90
27922;DHT22;15261;50.356;10.340;2023-05-10T06:04:35;14.60;99.90
27922;DHT22;15261;50.356;10.340;2023-05-10T06:07:01;14.80;99.90
27922;DHT22;15261;50.356;10.340;2023-05-10T06:09:26;14.90;99.90
27922;DHT22;15261;50.356;10.340;2023-05-10T06:11:52;15.00;99.90
27922;DHT22;15261;50.356;10.340;2023-05-10T06:14:20;15.10;99.90
27922;DHT22;15261;50.356;10.340;2023-05-10T06:16:46;15.20;99.90
27922;DHT22;15261;50.356;10.340;2023-05-10T06:19:12;15.20;99.90
27922;DHT22;15261;50.356;10.340;2023-05-10T06:21:37;15.40;99.90
27922;DHT22;15261;50.356;10.340;2023-05-10T06:24:03;15.50;99.90
27922;DHT22;15261;50.356;10.340;2023-05-10T06:26:29;15.60;99.90
27922;DHT22;15261;50.356;10.340;2023-05-10T06:28:55;15.80;99.90
27922;DHT22;15261;50.356;10.340;2023-05-10T06:31:21;16.00;99.90
27922;DHT22;15261;50.356;10.340;2023-05-10T06:33:46;16.10;99.90
27922;DHT22;15261;50.356;10.340;2023-05-10T06:36:12;16.40;99.90
27922;DHT22;15261;50.356;10.340;2023-05-10T06:38:38;16.40;99.90
27922;DHT22;15261;50.356;10.340;2023-05-10T06:41:04;16.40;99.90
27922;DHT22;15261;50.356;10.340;2023-05-10T06:43:30;16.30;99.90
27922;DHT22;15261;50.356;10.340;2023-05-10T06:45:57;16.30;99.90
27922;DHT22;15261;50.356;10.340;2023-05-10T06:48:23;16.20;99.90
27922;DHT22;15261;50.356;10.340;2023-05-10T06:50:48;16.30;99.90
27922;DHT22;15261;50.356;10.340;2023-05-10T06:53:14;16.50;99.90
27922;DHT22;15261;50.356;10.340;2023-05-10T06:55:40;16.60;99.90
27922;DHT22;15261;50.356;10.340;2023-05-10T06:58:06;16.70;99.90
27922;DHT22;15261;50.356;10.340;2023-05-10T07:00:32;16.90;99.90
27922;DHT22;15261;50.356;10.340;2023-05-10T07:02:59;17.00;99.90
27922;DHT22;15261;50.356;10.340;2023-05-10T07:05:25;17.30;99.90
27922;DHT22;15261;50.356;10.340;2023-05-10T07:07:53;17.80;99.90
27922;DHT22;15261;50.356;10.340;2023-05-10T07:10:18;18.20;99.90
27922;DHT22;15261;50.356;10.340;2023-05-10T07:12:44;18.40;99.90
27922;DHT22;15261;50.356;10.340;2023-05-10T07:15:10;18.40;99.90
27922;DHT22;15261;50.356;10.340;2023-05-10T07:17:35;18.40;99.90
27922;DHT22;15261;50.356;10.340;2023-05-10T07:20:01;18.20;99.90
27922;DHT22;15261;50.356;10.340;2023-05-10T07:22:28;18.00;99.90
27922;DHT22;15261;50.356;10.340;2023-05-10T07:24:54;18.00;99.90
27922;DHT22;15261;50.356;10.340;2023-05-10T07:27:20;18.10;99.90
27922;DHT22;15261;50.356;10.340;2023-05-10T07:29:45;18.20;99.90
27922;DHT22;15261;50.356;10.340;2023-05-10T07:32:14;18.40;99.90
27922;DHT22;15261;50.356;10.340;2023-05-10T07:34:40;18.70;99.90
27922;DHT22;15261;50.356;10.340;2023-05-10T07:37:06;18.80;99.90
27922;DHT22;15261;50.356;10.340;2023-05-10T07:39:31;18.70;99.90
27922;DHT22;15261;50.356;10.340;2023-05-10T07:41:57;19.00;99.90
27922;DHT22;15261;50.356;10.340;2023-05-10T07:44:23;19.10;99.90
27922;DHT22;15261;50.356;10.340;2023-05-10T07:46:48;19.20;99.90
27922;DHT22;15261;50.356;10.340;2023-05-10T07:49:14;19.10;99.90
27922;DHT22;15261;50.356;10.340;2023-05-10T07:51:40;19.40;99.90
27922;DHT22;15261;50.356;10.340;2023-05-10T07:54:06;19.60;99.60
27922;DHT22;15261;50.356;10.340;2023-05-10T07:56:33;19.40;99.70
27922;DHT22;15261;50.356;10.340;2023-05-10T07:59:00;19.30;99.30
27922;DHT22;15261;50.356;10.340;2023-05-10T08:01:29;19.60;98.90
27922;DHT22;15261;50.356;10.340;2023-05-10T08:03:55;19.60;98.90
27922;DHT22;15261;50.356;10.340;2023-05-10T08:06:20;19.30;98.90
27922;DHT22;15261;50.356;10.340;2023-05-10T08:08:47;19.00;99.40
27922;DHT22;15261;50.356;10.340;2023-05-10T08:11:19;18.90;99.60
27922;DHT22;15261;50.356;10.340;2023-05-10T08:13:46;19.00;99.10
27922;DHT22;15261;50.356;10.340;2023-05-10T08:16:12;19.10;99.50
27922;DHT22;15261;50.356;10.340;2023-05-10T08:18:38;19.10;98.60
27922;DHT22;15261;50.356;10.340;2023-05-10T08:21:04;19.20;98.20
27922;DHT22;15261;50.356;10.340;2023-05-10T08:23:30;19.20;97.50
27922;DHT22;15261;50.356;10.340;2023-05-10T08:25:55;19.00;97.80
27922;DHT22;15261;50.356;10.340;2023-05-10T08:28:21;18.80;97.30
27922;DHT22;15261;50.356;10.340;2023-05-10T08:30:47;18.50;99.20
27922;DHT22;15261;50.356;10.340;2023-05-10T08:33:12;18.40;98.90
27922;DHT22;15261;50.356;10.340;2023-05-10T08:35:38;18.30;99.30
27922;DHT22;15261;50.356;10.340;2023-05-10T08:38:04;18.40;98.90
27922;DHT22;15261;50.356;10.340;2023-05-10T08:40:31;18.50;98.60
27922;DHT22;15261;50.356;10.340;2023-05-10T08:43:06;18.80;97.80
27922;DHT22;15261;50.356;10.340;2023-05-10T08:45:33;19.00;98.00
27922;DHT22;15261;50.356;10.340;2023-05-10T08:48:06;19.30;98.30
27922;DHT22;15261;50.356;10.340;2023-05-10T08:50:31;19.40;97.20
27922;DHT22;15261;50.356;10.340;2023-05-10T08:53:05;19.50;97.10
27922;DHT22;15261;50.356;10.340;2023-05-10T08:55:32;19.40;97.10
27922;DHT22;15261;50.356;10.340;2023-05-10T08:57:59;19.20;96.40
27922;DHT22;15261;50.356;10.340;2023-05-10T09:00:25;19.20;96.90
27922;DHT22;15261;50.356;10.340;2023-05-10T09:02:51;19.00;97.50
27922;DHT22;15261;50.356;10.340;2023-05-10T09:05:17;18.80;98.30
27922;DHT22;15261;50.356;10.340;2023-05-10T09:07:43;18.80;97.90
27922;DHT22;15261;50.356;10.340;2023-05-10T09:10:09;18.60;98.20
27922;DHT22;15261;50.356;10.340;2023-05-10T09:12:36;18.70;98.80
27922;DHT22;15261;50.356;10.340;2023-05-10T09:15:04;18.90;98.60
27922;DHT22;15261;50.356;10.340;2023-05-10T09:17:31;19.10;98.60
27922;DHT22;15261;50.356;10.340;2023-05-10T09:20:01;19.40;97.90
27922;DHT22;15261;50.356;10.340;2023-05-10T09:22:27;19.80;97.00
27922;DHT22;15261;50.356;10.340;2023-05-10T09:25:10;20.00;96.90
27922;DHT22;15261;50.356;10.340;2023-05-10T09:27:37;20.40;96.00
27922;DHT22;15261;50.356;10.340;2023-05-10T09:30:04;20.40;94.60
27922;DHT22;15261;50.356;10.340;2023-05-10T09:32:44;20.50;95.10
27922;DHT22;15261;50.356;10.340;2023-05-10T09:35:12;20.50;95.00
27922;DHT22;15261;50.356;10.340;2023-05-10T09:37:42;20.70;95.50
27922;DHT22;15261;50.356;10.340;2023-05-10T09:40:12;20.80;94.80
27922;DHT22;15261;50.356;10.340;2023-05-10T09:42:38;20.70;94.60
27922;DHT22;15261;50.356;10.340;2023-05-10T09:45:05;21.00;95.00
27922;DHT22;15261;50.356;10.340;2023-05-10T09:47:36;21.20;93.60
27922;DHT22;15261;50.356;10.340;2023-05-10T09:50:03;21.20;92.20
27922;DHT22;15261;50.356;10.340;2023-05-10T09:52:31;21.10;92.00
27922;DHT22;15261;50.356;10.340;2023-05-10T09:55:10;21.10;92.00
27922;DHT22;15261;50.356;10.340;2023-05-10T09:57:36;20.90;91.50
27922;DHT22;15261;50.356;10.340;2023-05-10T10:00:02;20.50;92.70
27922;DHT22;15261;50.356;10.340;2023-05-10T10:02:29;20.20;93.30
27922;DHT22;15261;50.356;10.340;2023-05-10T10:04:56;20.10;94.60
27922;DHT22;15261;50.356;10.340;2023-05-10T10:07:23;20.10;95.00
27922;DHT22;15261;50.356;10.340;2023-05-10T10:09:50;19.80;95.00
27922;DHT22;15261;50.356;10.340;2023-05-10T10:12:16;19.50;95.40
27922;DHT22;15261;50.356;10.340;2023-05-10T10:14:43;19.20;95.50
27922;DHT22;15261;50.356;10.340;2023-05-10T10:17:09;18.90;96.00
27922;DHT22;15261;50.356;10.340;2023-05-10T10:19:35;18.40;96.90
27922;DHT22;15261;50.356;10.340;2023-05-10T10:22:01;18.00;98.10
27922;DHT22;15261;50.356;10.340;2023-05-10T10:24:26;17.80;98.80
27922;DHT22;15261;50.356;10.340;2023-05-10T10:26:53;17.50;99.90
27922;DHT22;15261;50.356;10.340;2023-05-10T10:29:41;17.50;99.90
27922;DHT22;15261;50.356;10.340;2023-05-10T10:34:50;17.70;99.90
27922;DHT22;15261;50.356;10.340;2023-05-10T10:37:15;18.00;99.90
27922;DHT22;15261;50.356;10.340;2023-05-10T10:39:41;18.30;99.90
27922;DHT22;15261;50.356;10.340;2023-05-10T10:42:07;18.70;99.90
27922;DHT22;15261;50.356;10.340;2023-05-10T10:47:04;19.20;99.90
27922;DHT22;15261;50.356;10.340;2023-05-10T10:52:41;19.50;99.00
27922;DHT22;15261;50.356;10.340;2023-05-10T11:00:25;19.30;99.40
27922;DHT22;15261;50.356;10.340;2023-05-10T11:03:04;19.10;99.90
27922;DHT22;15261;50.356;10.340;2023-05-10T11:05:38;19.10;99.80
27922;DHT22;15261;50.356;10.340;2023-05-10T11:08:26;19.20;99.50
27922;DHT22;15261;50.356;10.340;2023-05-10T11:11:02;19.10;99.50
27922;DHT22;15261;50.356;10.340;2023-05-10T11:19:03;19.40;99.90
27922;DHT22;15261;50.356;10.340;2023-05-10T11:21:34;19.50;99.20
27922;DHT22;15261;50.356;10.340;2023-05-10T11:24:13;19.70;98.50
27922;DHT22;15261;50.356;10.340;2023-05-10T11:26:39;19.80;98.40
27922;DHT22;15261;50.356;10.340;2023-05-10T11:29:06;19.70;98.20
27922;DHT22;15261;50.356;10.340;2023-05-10T11:31:31;19.60;98.70
27922;DHT22;15261;50.356;10.340;2023-05-10T11:33:59;19.60;98.40
27922;DHT22;15261;50.356;10.340;2023-05-10T11:36:28;19.90;98.50
27922;DHT22;15261;50.356;10.340;2023-05-10T11:38:55;19.80;98.30
27922;DHT22;15261;50.356;10.340;2023-05-10T11:41:22;20.00;98.60
27922;DHT22;15261;50.356;10.340;2023-05-10T11:43:52;20.10;97.90
27922;DHT22;15261;50.356;10.340;2023-05-10T11:46:20;20.10;97.70
27922;DHT22;15261;50.356;10.340;2023-05-10T11:48:48;20.10;97.10
27922;DHT22;15261;50.356;10.340;2023-05-10T11:51:15;20.20;96.70
27922;DHT22;15261;50.356;10.340;2023-05-10T11:53:41;20.70;96.60
27922;DHT22;15261;50.356;10.340;2023-05-10T11:56:09;21.00;95.50
27922;DHT22;15261;50.356;10.340;2023-05-10T11:58:36;21.20;95.20
27922;DHT22;15261;50.356;10.340;2023-05-10T12:01:03;21.30;94.40
27922;DHT22;15261;50.356;10.340;2023-05-10T12:03:29;21.80;94.00
27922;DHT22;15261;50.356;10.340;2023-05-10T12:05:56;22.20;93.90
27922;DHT22;15261;50.356;10.340;2023-05-10T12:08:23;22.40;93.30
27922;DHT22;15261;50.356;10.340;2023-05-10T12:10:50;22.50;91.90
27922;DHT22;15261;50.356;10.340;2023-05-10T12:13:16;22.50;92.10
27922;DHT22;15261;50.356;10.340;2023-05-10T12:15:43;22.10;91.60
27922;DHT22;15261;50.356;10.340;2023-05-10T12:18:12;22.10;91.40
27922;DHT22;15261;50.356;10.340;2023-05-10T12:20:39;22.00;90.70
27922;DHT22;15261;50.356;10.340;2023-05-10T12:23:07;21.90;91.80
27922;DHT22;15261;50.356;10.340;2023-05-10T12:25:35;21.90;92.00
27922;DHT22;15261;50.356;10.340;2023-05-10T12:28:03;21.90;90.30
27922;DHT22;15261;50.356;10.340;2023-05-10T12:30:31;22.20;90.20
27922;DHT22;15261;50.356;10.340;2023-05-10T12:35:30;22.60;86.90
27922;DHT22;15261;50.356;10.340;2023-05-10T12:37:56;22.60;88.50
27922;DHT22;15261;50.356;10.340;2023-05-10T12:40:22;22.90;87.80
27922;DHT22;15261;50.356;10.340;2023-05-10T12:42:47;23.20;86.40
27922;DHT22;15261;50.356;10.340;2023-05-10T12:45:14;23.40;85.90
27922;DHT22;15261;50.356;10.340;2023-05-10T12:47:39;23.20;84.00
27922;DHT22;15261;50.356;10.340;2023-05-10T12:50:06;23.00;84.70
27922;DHT22;15261;50.356;10.340;2023-05-10T12:52:32;22.80;84.20
27922;DHT22;15261;50.356;10.340;2023-05-10T12:55:00;22.80;86.70
27922;DHT22;15261;50.356;10.340;2023-05-10T12:57:26;22.80;86.60
27922;DHT22;15261;50.356;10.340;2023-05-10T12:59:53;22.60;86.00
27922;DHT22;15261;50.356;10.340;2023-05-10T13:02:19;22.50;85.90
27922;DHT22;15261;50.356;10.340;2023-05-10T13:04:46;22.60;86.70
27922;DHT22;15261;50.356;10.340;2023-05-10T13:07:12;22.50;85.80
27922;DHT22;15261;50.356;10.340;2023-05-10T13:09:38;22.30;85.60
27922;DHT22;15261;50.356;10.340;2023-05-10T13:12:03;22.20;86.00
27922;DHT22;15261;50.356;10.340;2023-05-10T13:14:30;22.10;87.00
27922;DHT22;15261;50.356;10.340;2023-05-10T13:16:55;22.00;86.90
27922;DHT22;15261;50.356;10.340;2023-05-10T13:19:21;21.80;84.70
27922;DHT22;15261;50.356;10.340;2023-05-10T13:21:47;21.70;87.70
27922;DHT22;15261;50.356;10.340;2023-05-10T13:24:12;21.60;86.90
27922;DHT22;15261;50.356;10.340;2023-05-10T13:26:42;21.40;85.00
27922;DHT22;15261;50.356;10.340;2023-05-10T13:29:08;21.30;84.60
27922;DHT22;15261;50.356;10.340;2023-05-10T13:31:34;21.30;84.70
27922;DHT22;15261;50.356;10.340;2023-05-10T13:34:00;21.40;83.60
27922;DHT22;15261;50.356;10.340;2023-05-10T13:36:26;21.40;83.50
27922;DHT22;15261;50.356;10.340;2023-05-10T13:38:51;21.40;84.10
27922;DHT22;15261;50.356;10.340;2023-05-10T13:41:17;21.10;85.80
27922;DHT22;15261;50.356;10.340;2023-05-10T13:43:43;21.10;86.90
27922;DHT22;15261;50.356;10.340;2023-05-10T13:46:09;21.00;87.30
27922;DHT22;15261;50.356;10.340;2023-05-10T13:48:35;21.10;87.30
27922;DHT22;15261;50.356;10.340;2023-05-10T13:51:02;20.90;88.70
27922;DHT22;15261;50.356;10.340;2023-05-10T13:53:28;20.70;87.80
27922;DHT22;15261;50.356;10.340;2023-05-10T13:55:53;20.70;87.80
27922;DHT22;15261;50.356;10.340;2023-05-10T13:58:19;20.60;88.20
27922;DHT22;15261;50.356;10.340;2023-05-10T14:00:44;20.50;88.30
27922;DHT22;15261;50.356;10.340;2023-05-10T14:03:10;20.60;87.60
27922;DHT22;15261;50.356;10.340;2023-05-10T14:05:36;20.60;87.80
27922;DHT22;15261;50.356;10.340;2023-05-10T14:08:02;20.40;86.80
27922;DHT22;15261;50.356;10.340;2023-05-10T14:10:28;20.50;88.10
27922;DHT22;15261;50.356;10.340;2023-05-10T14:12:53;20.60;86.90
27922;DHT22;15261;50.356;10.340;2023-05-10T14:15:19;20.70;86.40
27922;DHT22;15261;50.356;10.340;2023-05-10T14:17:44;20.80;84.70
27922;DHT22;15261;50.356;10.340;2023-05-10T14:20:10;20.80;84.00
27922;DHT22;15261;50.356;10.340;2023-05-10T14:22:36;20.80;85.80
27922;DHT22;15261;50.356;10.340;2023-05-10T14:25:02;20.70;85.60
27922;DHT22;15261;50.356;10.340;2023-05-10T14:27:28;20.60;86.80
27922;DHT22;15261;50.356;10.340;2023-05-10T14:29:53;20.60;86.70
27922;DHT22;15261;50.356;10.340;2023-05-10T14:32:19;20.70;87.80
27922;DHT22;15261;50.356;10.340;2023-05-10T14:34:45;20.50;86.60
27922;DHT22;15261;50.356;10.340;2023-05-10T14:37:11;20.40;87.20
27922;DHT22;15261;50.356;10.340;2023-05-10T14:39:37;20.10;88.00
27922;DHT22;15261;50.356;10.340;2023-05-10T14:42:03;20.10;89.00
27922;DHT22;15261;50.356;10.340;2023-05-10T14:44:29;19.90;89.60
27922;DHT22;15261;50.356;10.340;2023-05-10T14:46:54;19.70;89.80
27922;DHT22;15261;50.356;10.340;2023-05-10T14:49:21;19.50;90.90
27922;DHT22;15261;50.356;10.340;2023-05-10T14:51:48;19.50;90.80
27922;DHT22;15261;50.356;10.340;2023-05-10T14:54:13;19.30;90.80
27922;DHT22;15261;50.356;10.340;2023-05-10T14:56:39;19.30;91.70
27922;DHT22;15261;50.356;10.340;2023-05-10T14:59:07;19.20;91.70
27922;DHT22;15261;50.356;10.340;2023-05-10T15:01:32;19.20;91.80
27922;DHT22;15261;50.356;10.340;2023-05-10T15:04:00;19.10;91.90
27922;DHT22;15261;50.356;10.340;2023-05-10T15:06:35;18.90;92.10
27922;DHT22;15261;50.356;10.340;2023-05-10T15:09:01;18.80;92.30
27922;DHT22;15261;50.356;10.340;2023-05-10T15:11:28;18.90;92.50
27922;DHT22;15261;50.356;10.340;2023-05-10T15:13:54;18.90;92.30
27922;DHT22;15261;50.356;10.340;2023-05-10T15:16:20;19.00;92.50
27922;DHT22;15261;50.356;10.340;2023-05-10T15:18:46;19.00;92.90
27922;DHT22;15261;50.356;10.340;2023-05-10T15:21:11;19.00;92.80
27922;DHT22;15261;50.356;10.340;2023-05-10T15:23:38;19.10;93.20
27922;DHT22;15261;50.356;10.340;2023-05-10T15:26:03;19.00;92.60
27922;DHT22;15261;50.356;10.340;2023-05-10T15:28:29;19.00;93.20
27922;DHT22;15261;50.356;10.340;2023-05-10T15:30:55;19.00;93.00
27922;DHT22;15261;50.356;10.340;2023-05-10T15:33:21;19.00;93.00
27922;DHT22;15261;50.356;10.340;2023-05-10T15:35:47;19.20;92.20
27922;DHT22;15261;50.356;10.340;2023-05-10T15:38:12;19.20;92.40
27922;DHT22;15261;50.356;10.340;2023-05-10T15:40:38;19.20;91.80
27922;DHT22;15261;50.356;10.340;2023-05-10T15:43:04;19.20;91.40
27922;DHT22;15261;50.356;10.340;2023-05-10T15:45:30;19.30;91.60
27922;DHT22;15261;50.356;10.340;2023-05-10T15:47:57;19.30;91.70
27922;DHT22;15261;50.356;10.340;2023-05-10T15:50:22;19.20;91.40
27922;DHT22;15261;50.356;10.340;2023-05-10T15:52:48;19.10;91.80
27922;DHT22;15261;50.356;10.340;2023-05-10T15:55:14;19.20;92.10
27922;DHT22;15261;50.356;10.340;2023-05-10T15:57:41;19.20;92.00
27922;DHT22;15261;50.356;10.340;2023-05-10T16:00:08;19.10;92.10
27922;DHT22;15261;50.356;10.340;2023-05-10T16:02:34;19.10;91.40
27922;DHT22;15261;50.356;10.340;2023-05-10T16:05:00;18.90;91.20
27922;DHT22;15261;50.356;10.340;2023-05-10T16:07:26;18.70;91.20